Time;durP1;ratioP1;P1;durP2;ratioP2;P2;SDS_P1;SDS_P2;PMS_P1;PMS_P2;Temp;Humidity;BMP_temperature;BMP_pressure;BME280_temperature;BME280_humidity;BME280_pressure;Samples;Min_cycle;Max_cycle;Signal;HPM_P1;HPM_P2
2022/04/09 05:37:14;;;;;;;3.50;2.92;;;22.30;72.80;;;;;;6042523;26;89072;-96
2022/04/09 05:40:18;;;;;;;3.17;2.88;;;22.30;72.80;;;;;;6243168;28;89425;-96
2022/04/09 05:43:20;;;;;;;3.53;3.15;;;22.30;72.80;;;;;;6235904;28;87999;-96
2022/04/09 05:46:24;;;;;;;3.65;3.15;;;22.30;72.80;;;;;;6225637;28;87167;-96
2022/04/09 05:56:18;;;;;;;3.33;3.03;;;22.30;72.60;;;;;;6232869;28;88449;-96
2022/04/09 05:59:20;;;;;;;3.28;2.97;;;22.30;72.50;;;;;;6230834;28;88211;-96
2022/04/09 06:02:22;;;;;;;2.92;2.72;;;22.30;72.50;;;;;;6241499;28;87403;-96
2022/04/09 06:11:59;;;;;;;3.80;3.40;;;22.40;72.50;;;;;;6253892;28;89493;-96
2022/04/09 06:15:01;;;;;;;3.30;3.00;;;22.40;72.40;;;;;;6249805;28;91735;-96
2022/04/09 06:51:11;;;;;;;2.70;2.50;;;22.50;71.30;;;;;;6249339;28;90310;-96
2022/04/09 07:02:03;;;;;;;3.00;2.70;;;22.60;73.00;;;;;;6245273;28;90101;-96
2022/04/09 07:18:43;;;;;;;3.30;2.63;;;22.80;72.00;;;;;;6246483;28;89816;-96
2022/04/09 07:21:47;;;;;;;3.15;2.85;;;22.80;72.00;;;;;;6234401;28;89080;-96
2022/04/09 07:24:53;;;;;;;3.70;2.50;;;22.80;71.80;;;;;;6238690;28;87958;-96
2022/04/09 07:31:15;;;;;;;2.85;2.53;;;22.70;71.50;;;;;;6234935;28;87444;-96
2022/04/09 07:34:17;;;;;;;3.03;2.72;;;22.70;71.40;;;;;;6233843;28;88242;-96
2022/04/09 07:41:12;;;;;;;2.60;2.40;;;22.70;71.10;;;;;;6235725;28;89211;-96
2022/04/09 07:44:14;;;;;;;2.33;2.10;;;22.70;71.10;;;;;;6239834;28;88998;-96
2022/04/09 07:50:35;;;;;;;2.58;2.38;;;22.70;71.00;;;;;;6237788;28;89362;-96
2022/04/09 07:53:38;;;;;;;3.03;2.50;;;22.70;70.90;;;;;;6233857;28;88276;-96
2022/04/09 07:56:41;;;;;;;2.75;2.55;;;22.70;70.90;;;;;;6232309;28;90008;-96
2022/04/09 07:59:43;;;;;;;2.95;2.60;;;22.70;70.80;;;;;;6234388;28;89695;-96
2022/04/09 08:02:46;;;;;;;2.60;2.40;;;22.70;70.70;;;;;;6233349;28;87982;-96
2022/04/09 08:05:48;;;;;;;2.72;2.30;;;22.70;70.60;;;;;;6235416;28;90574;-96
2022/04/09 08:08:59;;;;;;;2.97;2.20;;;22.70;70.60;;;;;;6240415;28;89422;-96
2022/04/09 08:23:49;;;;;;;2.35;2.15;;;22.70;70.90;;;;;;6243845;28;88576;-96
2022/04/09 08:26:52;;;;;;;2.70;2.50;;;22.70;71.10;;;;;;6235808;28;89363;-96
2022/04/09 08:39:45;;;;;;;5.43;2.83;;;22.80;71.90;;;;;;6262241;22;88783;-69
2022/04/09 08:42:49;;;;;;;3.70;2.97;;;22.80;76.70;;;;;;6258865;28;89099;-68
2022/04/09 08:45:52;;;;;;;5.25;3.40;;;22.80;68.80;;;;;;6259308;28;89011;-69
2022/04/09 08:48:55;;;;;;;5.55;3.45;;;22.60;64.00;;;;;;6257624;28;89109;-69
2022/04/09 08:51:58;;;;;;;4.97;2.90;;;22.50;61.80;;;;;;6260121;28;88400;-69
2022/04/09 08:55:00;;;;;;;5.72;3.05;;;22.50;60.80;;;;;;6258459;27;89212;-68
2022/04/09 08:58:04;;;;;;;3.88;2.95;;;22.40;63.10;;;;;;6260611;28;89105;-71
2022/04/09 09:01:06;;;;;;;4.80;2.63;;;22.50;64.00;;;;;;6259177;27;90037;-71
2022/04/09 09:04:08;;;;;;;3.15;2.55;;;22.40;64.50;;;;;;6258063;27;89069;-72
2022/04/09 09:07:18;;;;;;;5.45;2.40;;;22.50;65.10;;;;;;6259553;28;89032;-71
2022/04/09 09:10:21;;;;;;;3.00;2.67;;;22.50;65.50;;;;;;6252073;28;89254;-71
2022/04/09 09:13:25;;;;;;;3.90;2.30;;;22.50;66.00;;;;;;6255848;28;89056;-71
2022/04/09 09:16:29;;;;;;;2.55;2.03;;;22.50;66.20;;;;;;6250445;28;89165;-70
2022/04/09 09:19:41;;;;;;;3.72;2.30;;;22.50;66.40;;;;;;6253698;28;88982;-70
2022/04/09 09:22:44;;;;;;;2.85;2.35;;;22.50;66.60;;;;;;6255126;27;88631;-71
2022/04/09 09:25:49;;;;;;;4.20;2.20;;;22.50;66.70;;;;;;6252144;27;88890;-71
2022/04/09 09:28:57;;;;;;;2.20;2.00;;;22.60;67.00;;;;;;6252565;27;89102;-70
2022/04/09 09:32:00;;;;;;;3.50;2.35;;;22.60;67.10;;;;;;6251297;28;90132;-71
2022/04/09 09:35:03;;;;;;;2.00;1.83;;;22.60;67.30;;;;;;6253304;28;88012;-72
2022/04/09 09:38:19;;;;;;;2.45;1.92;;;22.60;67.40;;;;;;6249624;27;90206;-71
2022/04/09 09:41:24;;;;;;;2.88;2.20;;;22.60;67.60;;;;;;6252202;28;88969;-71
2022/04/09 09:44:30;;;;;;;2.90;2.08;;;22.60;67.70;;;;;;6255634;27;89019;-70
2022/04/09 09:47:32;;;;;;;2.67;1.80;;;22.60;69.30;;;;;;6256520;28;88145;-70
2022/04/09 09:50:41;;;;;;;3.90;2.00;;;22.60;68.40;;;;;;6255852;28;87935;-70
2022/04/09 09:53:43;;;;;;;3.47;2.25;;;22.70;68.40;;;;;;6255488;27;87197;-71
2022/04/09 09:56:47;;;;;;;2.80;2.10;;;22.60;68.40;;;;;;6257337;28;89097;-70
2022/04/09 09:59:51;;;;;;;3.58;2.10;;;22.70;68.80;;;;;;6255831;28;89178;-70
2022/04/09 10:02:53;;;;;;;3.10;2.05;;;22.70;69.10;;;;;;6256392;28;90045;-70
2022/04/09 10:05:55;;;;;;;4.80;2.05;;;22.60;69.10;;;;;;6254924;28;89159;-70
2022/04/09 10:08:58;;;;;;;6.85;2.28;;;22.70;69.30;;;;;;6252044;28;89128;-70
2022/04/09 10:12:02;;;;;;;5.18;2.10;;;22.70;69.60;;;;;;6245172;28;89054;-70
2022/04/09 10:15:07;;;;;;;3.38;2.20;;;22.70;69.70;;;;;;6246822;28;87986;-70
2022/04/09 10:18:09;;;;;;;2.92;2.10;;;22.70;69.80;;;;;;6256617;28;88956;-69
2022/04/09 10:21:11;;;;;;;4.43;2.22;;;22.70;69.90;;;;;;6245355;28;87970;-70
2022/04/09 10:24:16;;;;;;;3.90;2.10;;;22.70;69.90;;;;;;6258031;28;88284;-70
2022/04/09 10:27:38;;;;;;;4.20;2.03;;;22.70;69.90;;;;;;6243387;27;89108;-70
2022/04/09 10:30:43;;;;;;;3.85;1.88;;;22.70;69.90;;;;;;6242506;28;89169;-70
2022/04/09 10:33:55;;;;;;;4.68;2.10;;;22.70;69.90;;;;;;6256565;28;90080;-71
2022/04/09 10:37:02;;;;;;;4.68;1.88;;;22.70;70.80;;;;;;6247087;28;88218;-70
2022/04/09 10:40:05;;;;;;;4.35;2.15;;;22.70;69.90;;;;;;6253722;28;88844;-70
2022/04/09 10:43:07;;;;;;;2.13;1.67;;;22.70;70.00;;;;;;6256116;28;89028;-70
2022/04/09 10:46:20;;;;;;;2.42;1.90;;;22.70;69.90;;;;;;6244958;27;89121;-70
2022/04/09 10:49:28;;;;;;;3.10;1.80;;;22.70;69.90;;;;;;6255641;28;88949;-70
2022/04/09 10:52:30;;;;;;;2.58;2.10;;;22.70;69.90;;;;;;6255660;28;89117;-70
2022/04/09 10:55:32;;;;;;;3.15;1.70;;;22.70;69.80;;;;;;6255211;28;88708;-70
2022/04/09 10:59:01;;;;;;;2.72;1.90;;;22.70;69.80;;;;;;6257364;28;89081;-70
2022/04/09 11:02:05;;;;;;;5.43;1.98;;;22.70;69.80;;;;;;6256206;27;89592;-71
2022/04/09 11:05:21;;;;;;;2.22;1.65;;;22.70;69.70;;;;;;6256045;28;89971;-70
2022/04/09 11:08:23;;;;;;;3.20;1.77;;;22.70;69.70;;;;;;6255597;27;89070;-70
2022/04/09 11:11:26;;;;;;;2.08;1.80;;;22.70;69.60;;;;;;6255117;28;89226;-71
2022/04/09 11:14:28;;;;;;;3.67;1.70;;;22.70;69.60;;;;;;6245282;28;89021;-69
2022/04/09 11:17:34;;;;;;;3.70;1.80;;;22.70;69.50;;;;;;6256120;28;89390;-69
2022/04/09 11:20:37;;;;;;;3.55;1.70;;;22.80;69.50;;;;;;6243597;28;89359;-71
2022/04/09 11:23:39;;;;;;;2.10;1.50;;;22.70;69.40;;;;;;6232511;28;89078;-70
2022/04/09 11:26:41;;;;;;;2.13;1.70;;;22.70;69.40;;;;;;6254416;28;88280;-70
2022/04/09 11:29:44;;;;;;;3.13;1.67;;;22.80;69.40;;;;;;6256655;28;88966;-71
2022/04/09 11:32:48;;;;;;;2.55;1.65;;;22.70;69.40;;;;;;6255654;28;89007;-70
2022/04/09 11:35:51;;;;;;;2.33;1.75;;;22.70;69.40;;;;;;6254187;28;90010;-70
2022/04/09 11:38:53;;;;;;;2.00;1.50;;;22.70;69.40;;;;;;6257370;28;88990;-70
2022/04/09 11:41:56;;;;;;;1.73;1.63;;;22.70;69.40;;;;;;6255906;27;88779;-70
2022/04/09 11:44:58;;;;;;;2.50;1.70;;;22.70;69.30;;;;;;6255733;28;89106;-70
2022/04/09 11:48:03;;;;;;;2.08;1.70;;;22.70;69.30;;;;;;6254036;28;89141;-70
2022/04/09 11:51:05;;;;;;;1.55;1.45;;;22.80;69.30;;;;;;6258010;27;89042;-71
2022/04/09 11:54:17;;;;;;;2.67;1.70;;;22.80;69.30;;;;;;6259473;28;89124;-70
2022/04/09 11:57:19;;;;;;;1.92;1.40;;;22.80;69.20;;;;;;6260327;27;88358;-70
2022/04/09 12:00:25;;;;;;;1.95;1.60;;;22.80;69.10;;;;;;6259280;27;89180;-70
2022/04/09 12:03:28;;;;;;;1.90;1.70;;;22.70;69.00;;;;;;6260192;28;89791;-70
2022/04/09 12:06:30;;;;;;;1.75;1.50;;;22.80;69.10;;;;;;6257848;28;90097;-70
2022/04/09 12:09:33;;;;;;;2.08;1.70;;;22.80;68.90;;;;;;6258663;28;89429;-70
2022/04/09 12:12:38;;;;;;;1.52;1.30;;;22.80;69.00;;;;;;6260162;27;89033;-70
2022/04/09 12:15:40;;;;;;;1.52;1.42;;;22.80;68.90;;;;;;6246508;27;89157;-70
2022/04/09 12:18:44;;;;;;;2.88;1.48;;;22.70;68.90;;;;;;6260384;27;89197;-70
2022/04/09 12:21:46;;;;;;;2.15;1.60;;;22.70;69.00;;;;;;6258406;28;89028;-70
2022/04/09 12:24:53;;;;;;;1.67;1.58;;;22.80;69.00;;;;;;6259561;28;89070;-70
2022/04/09 12:27:55;;;;;;;3.80;1.60;;;22.80;69.00;;;;;;6259457;28;88288;-70
2022/04/09 12:31:00;;;;;;;1.58;1.40;;;22.70;68.90;;;;;;6260332;28;89172;-70
2022/04/09 12:34:04;;;;;;;1.65;1.40;;;22.70;68.90;;;;;;6258017;27;89141;-71
2022/04/09 12:37:06;;;;;;;1.60;1.33;;;22.80;69.00;;;;;;6258914;27;90131;-70
2022/04/09 12:40:13;;;;;;;1.75;1.40;;;22.80;68.90;;;;;;6257749;27;88008;-69
2022/04/09 12:43:35;;;;;;;1.63;1.48;;;22.70;68.80;;;;;;6258572;28;89069;-69
2022/04/09 12:46:48;;;;;;;1.70;1.50;;;22.80;68.70;;;;;;6258164;28;89039;-69
2022/04/09 12:49:51;;;;;;;1.65;1.40;;;22.80;68.70;;;;;;6258128;28;89136;-70
2022/04/09 12:52:55;;;;;;;1.58;1.23;;;22.80;68.60;;;;;;6258704;28;89134;-69
2022/04/09 12:55:57;;;;;;;1.65;1.50;;;22.80;68.60;;;;;;6257536;28;89121;-69
2022/04/09 12:58:59;;;;;;;1.60;1.40;;;22.80;68.80;;;;;;6252552;28;88759;-69
2022/04/09 13:02:01;;;;;;;1.92;1.38;;;22.80;68.80;;;;;;6245959;28;89145;-69
2022/04/09 13:05:05;;;;;;;1.50;1.30;;;22.80;68.80;;;;;;6245351;28;89022;-70
2022/04/09 13:08:07;;;;;;;2.20;1.50;;;22.70;68.70;;;;;;6246838;28;90072;-69
2022/04/09 13:11:14;;;;;;;2.57;1.40;;;22.80;68.80;;;;;;6247535;28;89143;-69
2022/04/09 13:14:16;;;;;;;1.45;1.35;;;22.80;68.80;;;;;;6259509;28;88948;-69
2022/04/09 13:17:19;;;;;;;1.58;1.20;;;22.70;68.60;;;;;;6256979;28;88840;-69
2022/04/09 13:20:22;;;;;;;1.40;1.30;;;22.80;68.70;;;;;;6256964;28;89542;-69
2022/04/09 13:23:24;;;;;;;1.88;1.30;;;22.80;68.80;;;;;;6259179;28;88335;-69
2022/04/09 13:26:26;;;;;;;1.60;1.35;;;22.70;68.60;;;;;;6258836;27;89368;-70
2022/04/09 13:29:28;;;;;;;1.67;1.40;;;22.80;68.60;;;;;;6258908;27;88470;-70
2022/04/09 13:32:30;;;;;;;1.40;1.30;;;22.70;68.60;;;;;;6257723;28;89384;-69
2022/04/09 13:35:34;;;;;;;2.33;1.40;;;22.70;68.60;;;;;;6257844;28;89066;-69
2022/04/09 13:38:36;;;;;;;2.13;1.50;;;22.80;69.60;;;;;;6256903;28;90296;-69
2022/04/09 13:41:38;;;;;;;1.85;1.50;;;22.80;68.80;;;;;;6258543;27;89076;-69
2022/04/09 13:44:43;;;;;;;1.30;1.20;;;22.80;68.80;;;;;;6258222;28;89051;-69
2022/04/09 13:47:45;;;;;;;1.50;1.33;;;22.70;68.70;;;;;;6257812;28;89071;-69
2022/04/09 13:50:49;;;;;;;1.48;1.30;;;22.70;68.80;;;;;;6256983;28;89031;-69
2022/04/09 13:53:51;;;;;;;1.40;1.30;;;22.80;68.80;;;;;;6258260;28;89009;-69
2022/04/09 13:56:53;;;;;;;1.45;1.30;;;22.80;68.90;;;;;;6256175;28;88004;-69
2022/04/09 13:59:55;;;;;;;1.52;1.38;;;22.80;68.80;;;;;;6258794;28;88347;-70
2022/04/09 14:02:57;;;;;;;1.58;1.42;;;22.70;69.70;;;;;;6256534;28;89029;-70
2022/04/09 14:06:00;;;;;;;3.15;1.58;;;22.80;68.80;;;;;;6256705;28;89167;-70
2022/04/09 14:09:03;;;;;;;2.50;1.58;;;22.80;68.80;;;;;;6245690;28;90117;-69
2022/04/09 14:12:06;;;;;;;3.92;1.80;;;22.80;68.80;;;;;;6256161;27;89036;-70
2022/04/09 14:15:10;;;;;;;2.38;1.70;;;22.80;68.90;;;;;;6257039;28;89145;-69
2022/04/09 14:18:12;;;;;;;4.75;2.17;;;22.80;68.80;;;;;;6255418;28;88051;-69
2022/04/09 14:21:15;;;;;;;3.95;2.30;;;22.80;68.80;;;;;;6255759;28;89257;-69
2022/04/09 14:24:18;;;;;;;3.20;2.20;;;22.80;68.90;;;;;;6255216;27;89155;-69
2022/04/09 14:27:20;;;;;;;4.88;2.80;;;22.80;68.80;;;;;;6254864;28;89077;-70
2022/04/09 14:30:22;;;;;;;5.68;3.10;;;22.80;68.40;;;;;;6257623;28;88291;-70
2022/04/09 14:33:24;;;;;;;5.32;3.50;;;22.80;68.30;;;;;;6256324;28;89392;-70
2022/04/09 14:36:28;;;;;;;5.93;3.70;;;22.80;68.10;;;;;;6254655;27;89029;-70
2022/04/09 14:39:30;;;;;;;7.72;4.00;;;22.70;67.90;;;;;;6255813;27;90182;-70
2022/04/09 14:42:32;;;;;;;6.63;3.65;;;22.70;67.90;;;;;;6255045;27;88962;-71
2022/04/09 14:45:34;;;;;;;6.53;4.30;;;22.70;67.80;;;;;;6254797;27;89467;-70
2022/04/09 14:48:37;;;;;;;7.68;3.70;;;22.70;67.70;;;;;;6245748;28;88079;-70
2022/04/09 14:51:41;;;;;;;6.32;3.88;;;22.70;67.90;;;;;;6252733;28;89405;-70
2022/04/09 14:54:43;;;;;;;6.80;3.72;;;22.70;68.20;;;;;;6256973;28;89548;-70
2022/04/09 14:57:45;;;;;;;5.80;3.85;;;22.80;68.40;;;;;;6256572;27;87929;-69
2022/04/09 15:00:47;;;;;;;6.88;3.72;;;22.80;68.50;;;;;;6250714;28;86397;-69
2022/04/09 15:03:49;;;;;;;6.07;4.20;;;22.70;68.50;;;;;;6247762;28;87930;-70
2022/04/09 15:06:52;;;;;;;5.53;3.70;;;22.80;68.60;;;;;;6254433;27;88270;-70
2022/04/09 15:09:56;;;;;;;5.03;3.70;;;22.70;68.40;;;;;;6256032;27;90068;-69
2022/04/09 15:12:58;;;;;;;5.78;3.70;;;22.70;68.40;;;;;;6256128;28;88984;-69
2022/04/09 15:16:01;;;;;;;6.20;3.88;;;22.80;68.40;;;;;;6255810;28;90019;-69
2022/04/09 15:19:05;;;;;;;6.95;4.07;;;22.80;68.40;;;;;;6242468;28;88158;-70
2022/04/09 15:22:10;;;;;;;6.80;4.07;;;22.80;68.40;;;;;;6257315;28;89098;-69
2022/04/09 15:25:12;;;;;;;6.35;4.25;;;22.70;68.40;;;;;;6257108;27;89208;-69
2022/04/09 15:28:15;;;;;;;6.25;3.92;;;22.80;68.40;;;;;;6261034;27;89259;-69
2022/04/09 15:31:17;;;;;;;6.03;3.78;;;22.70;68.40;;;;;;6261480;28;88390;-69
2022/04/09 15:34:19;;;;;;;6.68;4.20;;;22.80;68.40;;;;;;6259312;28;89509;-70
2022/04/09 15:37:25;;;;;;;7.10;3.97;;;22.70;68.40;;;;;;6260015;28;89072;-69
2022/04/09 15:40:27;;;;;;;6.60;3.80;;;22.70;68.30;;;;;;6250570;28;90549;-69
2022/04/09 15:43:29;;;;;;;6.95;3.63;;;22.70;68.30;;;;;;6257544;28;89356;-69
2022/04/09 15:46:31;;;;;;;5.35;3.95;;;22.70;68.30;;;;;;6256961;28;89115;-69
2022/04/09 15:49:35;;;;;;;5.82;3.70;;;22.70;68.30;;;;;;6258412;28;89367;-69
2022/04/09 15:52:39;;;;;;;6.53;3.95;;;22.70;68.30;;;;;;6260622;28;89335;-69
2022/04/09 15:55:41;;;;;;;5.32;3.60;;;22.70;68.30;;;;;;6257971;28;89424;-70
2022/04/09 15:58:43;;;;;;;6.25;3.80;;;22.70;68.30;;;;;;6260405;28;89438;-70
2022/04/09 16:01:47;;;;;;;4.95;3.67;;;22.80;68.40;;;;;;6260134;27;88274;-69
2022/04/09 16:04:49;;;;;;;5.45;3.75;;;22.70;68.30;;;;;;6257678;28;89287;-70
2022/04/09 16:07:52;;;;;;;5.90;3.67;;;22.70;68.30;;;;;;6261059;28;89347;-69
2022/04/09 16:10:54;;;;;;;6.43;3.65;;;22.80;68.40;;;;;;6245315;28;90016;-70
2022/04/09 16:13:58;;;;;;;4.93;3.40;;;22.70;68.30;;;;;;6259019;28;87990;-69
2022/04/09 16:17:00;;;;;;;6.30;3.95;;;22.70;68.30;;;;;;6259960;28;89525;-70
2022/04/09 16:20:03;;;;;;;6.25;3.65;;;22.70;68.20;;;;;;6257697;28;89308;-70
2022/04/09 16:23:07;;;;;;;5.45;3.60;;;22.70;68.30;;;;;;6254305;28;89137;-70
2022/04/09 16:26:09;;;;;;;5.65;3.70;;;22.70;68.20;;;;;;6251484;28;89073;-70
2022/04/09 16:29:12;;;;;;;5.38;3.17;;;22.70;68.30;;;;;;6260434;27;89045;-69
2022/04/09 16:32:14;;;;;;;5.60;3.40;;;22.70;68.30;;;;;;6258535;28;88326;-70
2022/04/09 16:35:16;;;;;;;4.22;3.47;;;22.70;68.30;;;;;;6260312;27;89171;-70
2022/04/09 16:38:19;;;;;;;4.15;3.40;;;22.70;68.30;;;;;;6259829;27;89622;-69
2022/04/09 16:41:21;;;;;;;4.28;3.40;;;22.70;68.30;;;;;;6246719;28;88894;-70
2022/04/09 16:44:25;;;;;;;4.28;3.30;;;22.70;68.20;;;;;;6258314;28;89587;-70
2022/04/09 16:47:27;;;;;;;4.60;3.10;;;22.70;68.20;;;;;;6258197;28;89557;-70
2022/04/09 16:50:29;;;;;;;6.43;3.67;;;22.70;68.20;;;;;;6259082;27;89139;-70
2022/04/09 16:53:32;;;;;;;4.57;3.55;;;22.70;68.20;;;;;;6259550;27;89026;-70
2022/04/09 16:56:34;;;;;;;5.13;3.42;;;22.70;68.20;;;;;;6258260;28;89137;-70
2022/04/09 16:59:37;;;;;;;4.47;3.30;;;22.70;68.20;;;;;;6259866;27;89047;-70
2022/04/09 17:02:38;;;;;;;4.47;3.10;;;22.70;68.30;;;;;;6259977;28;88734;-70
2022/04/09 17:05:40;;;;;;;4.72;3.15;;;22.70;68.20;;;;;;6244854;28;87975;-70
2022/04/09 17:08:44;;;;;;;4.53;3.33;;;22.70;68.20;;;;;;6258611;27;89045;-70
2022/04/09 17:11:46;;;;;;;4.07;3.10;;;22.70;68.20;;;;;;6257184;28;90086;-70
2022/04/09 17:14:48;;;;;;;4.70;3.28;;;22.70;68.30;;;;;;6258169;28;88418;-69
2022/04/09 17:17:50;;;;;;;4.28;3.10;;;22.70;68.30;;;;;;6257627;28;89186;-70
2022/04/09 17:20:52;;;;;;;4.35;3.20;;;22.70;68.30;;;;;;6258841;28;89155;-70
2022/04/09 17:23:56;;;;;;;3.95;3.10;;;22.70;68.30;;;;;;6258708;28;89164;-69
2022/04/09 17:27:00;;;;;;;4.65;3.15;;;22.70;68.30;;;;;;6244546;28;88437;-70
2022/04/09 17:30:02;;;;;;;4.65;3.08;;;22.70;68.30;;;;;;6258341;28;88468;-70
2022/04/09 17:33:04;;;;;;;4.25;3.17;;;22.70;68.30;;;;;;6257268;27;88475;-70
2022/04/09 17:36:06;;;;;;;3.65;3.03;;;22.70;68.30;;;;;;6257948;27;89064;-70
2022/04/09 17:39:10;;;;;;;4.28;3.22;;;22.70;68.30;;;;;;6258247;27;88984;-69
2022/04/09 17:42:12;;;;;;;4.13;2.75;;;22.70;68.30;;;;;;6250802;28;90093;-70
2022/04/09 17:45:14;;;;;;;3.92;2.72;;;22.70;68.30;;;;;;6257846;28;89058;-70
2022/04/09 17:48:16;;;;;;;3.95;2.88;;;22.70;68.20;;;;;;6256303;27;89077;-70
2022/04/09 17:51:18;;;;;;;4.43;2.92;;;22.70;68.30;;;;;;6258696;27;89248;-70
2022/04/09 17:54:22;;;;;;;4.32;3.08;;;22.70;68.30;;;;;;6258178;28;87949;-69
2022/04/09 17:57:23;;;;;;;3.67;2.75;;;22.70;68.30;;;;;;6256080;28;87976;-70
2022/04/09 18:00:25;;;;;;;3.67;2.88;;;22.70;68.30;;;;;;6257509;27;89098;-70
2022/04/09 18:03:27;;;;;;;3.58;2.83;;;22.70;68.30;;;;;;6258418;28;88290;-70
2022/04/09 18:06:29;;;;;;;4.00;2.58;;;22.60;68.20;;;;;;6255961;27;89090;-70
2022/04/09 18:09:33;;;;;;;3.35;2.70;;;22.70;68.30;;;;;;6252874;27;89039;-69
2022/04/09 18:12:35;;;;;;;3.45;2.60;;;22.70;68.30;;;;;;6252386;28;90080;-70
2022/04/09 18:15:38;;;;;;;3.80;2.60;;;22.70;68.50;;;;;;6255866;28;87978;-69
2022/04/09 18:18:40;;;;;;;4.32;2.90;;;22.70;68.60;;;;;;6256163;27;88990;-70
2022/04/09 18:25:03;;;;;;;2.78;2.47;;;22.70;68.80;;;;;;6257331;28;87344;-70
2022/04/09 18:28:06;;;;;;;4.30;2.40;;;22.70;68.80;;;;;;6256113;28;89242;-70
2022/04/09 18:31:08;;;;;;;3.20;2.58;;;22.80;68.90;;;;;;6256914;27;89368;-71
2022/04/09 18:34:11;;;;;;;3.63;2.75;;;22.80;68.90;;;;;;6251239;28;88543;-70
2022/04/09 18:37:13;;;;;;;3.17;2.65;;;22.80;68.80;;;;;;6253646;28;89035;-69
2022/04/09 18:40:16;;;;;;;3.67;2.47;;;22.80;68.60;;;;;;6255814;27;89161;-70
2022/04/09 18:43:18;;;;;;;3.80;2.50;;;22.80;68.60;;;;;;6248933;28;90043;-70
2022/04/09 18:46:26;;;;;;;3.67;2.50;;;22.80;68.60;;;;;;6254091;27;89069;-70
2022/04/09 18:49:28;;;;;;;2.72;2.38;;;22.70;68.60;;;;;;6251974;28;89505;-71
2022/04/09 18:52:30;;;;;;;3.63;2.50;;;22.70;68.60;;;;;;6251737;27;89000;-70
2022/04/09 18:55:33;;;;;;;3.58;2.33;;;22.70;68.60;;;;;;6256512;28;89107;-71
2022/04/09 18:58:36;;;;;;;3.90;2.33;;;22.70;68.60;;;;;;6253527;28;89060;-71
2022/04/09 19:01:39;;;;;;;3.10;2.20;;;22.70;68.50;;;;;;6256694;27;89232;-69
2022/04/09 19:04:41;;;;;;;2.72;2.33;;;22.70;68.40;;;;;;6255552;28;88599;-70
2022/04/09 19:07:43;;;;;;;2.70;2.10;;;22.70;68.40;;;;;;6256245;28;89140;-69
2022/04/09 19:10:46;;;;;;;2.78;2.10;;;22.70;68.40;;;;;;6254422;28;87974;-70
2022/04/09 19:13:48;;;;;;;3.45;2.42;;;22.70;68.40;;;;;;6252840;28;89957;-70
2022/04/09 19:16:50;;;;;;;2.55;2.13;;;22.70;68.40;;;;;;6255178;27;89083;-70
2022/04/09 19:19:55;;;;;;;3.05;1.98;;;22.70;68.30;;;;;;6253416;28;89143;-71
2022/04/09 19:22:57;;;;;;;2.72;2.10;;;22.80;68.40;;;;;;6254848;27;89004;-70
2022/04/09 19:26:00;;;;;;;3.13;2.25;;;22.80;68.40;;;;;;6255366;28;88083;-71
2022/04/09 19:29:03;;;;;;;2.85;2.08;;;22.70;68.30;;;;;;6253894;28;89180;-69
2022/04/09 19:32:07;;;;;;;2.33;2.00;;;22.70;68.30;;;;;;6254669;27;89249;-71
2022/04/09 19:35:10;;;;;;;3.05;2.10;;;22.70;68.30;;;;;;6255494;27;88415;-70
2022/04/09 19:38:13;;;;;;;2.72;2.05;;;22.70;68.30;;;;;;6256617;28;89588;-71
2022/04/09 19:41:16;;;;;;;3.65;2.10;;;22.80;68.60;;;;;;6244923;27;88930;-71
2022/04/09 19:44:19;;;;;;;3.13;2.15;;;22.80;68.80;;;;;;6248200;28;90082;-72
2022/04/09 19:47:21;;;;;;;2.45;2.10;;;22.80;68.80;;;;;;6242742;27;89077;-71
2022/04/09 19:50:23;;;;;;;2.65;1.88;;;22.80;68.60;;;;;;6247556;27;89042;-71
2022/04/09 19:53:25;;;;;;;3.08;2.10;;;22.80;68.60;;;;;;6250835;27;89079;-71
2022/04/09 19:56:28;;;;;;;2.45;1.98;;;22.80;68.60;;;;;;6253766;27;89122;-71
2022/04/09 19:59:30;;;;;;;2.50;2.20;;;22.80;68.60;;;;;;6251994;28;87798;-71
2022/04/09 20:02:32;;;;;;;2.47;2.28;;;22.80;68.60;;;;;;6253768;27;89074;-72
2022/04/09 20:05:34;;;;;;;2.85;2.55;;;22.80;68.40;;;;;;6254315;27;87557;-71
2022/04/09 20:08:36;;;;;;;2.72;2.45;;;22.80;68.30;;;;;;6251420;28;89565;-72
2022/04/09 20:11:40;;;;;;;3.45;3.05;;;22.80;68.20;;;;;;6243283;28;89126;-71
2022/04/09 20:14:42;;;;;;;3.53;3.05;;;22.80;68.30;;;;;;6255824;28;89919;-70
2022/04/09 20:17:45;;;;;;;3.60;3.10;;;22.80;68.30;;;;;;6243268;28;89396;-71
2022/04/09 20:20:47;;;;;;;4.10;3.50;;;22.80;68.30;;;;;;6257462;28;88954;-73
2022/04/09 20:23:49;;;;;;;4.53;3.95;;;22.70;68.20;;;;;;6258303;27;88002;-70
2022/04/09 20:26:52;;;;;;;4.25;3.65;;;22.80;68.30;;;;;;6255521;27;89109;-71
2022/04/09 20:29:54;;;;;;;4.90;4.22;;;22.80;68.30;;;;;;6256816;28;89087;-71
2022/04/09 20:32:56;;;;;;;5.45;4.50;;;22.80;68.30;;;;;;6257104;27;89180;-72
2022/04/09 20:36:02;;;;;;;4.72;4.30;;;22.70;68.20;;;;;;6255355;27;88366;-70
2022/04/09 20:39:04;;;;;;;4.93;4.43;;;22.80;68.30;;;;;;6252941;27;89290;-74
2022/04/09 20:42:08;;;;;;;5.10;4.60;;;22.70;68.30;;;;;;6255366;27;89050;-73
2022/04/09 20:45:11;;;;;;;5.18;4.68;;;22.80;68.30;;;;;;6252108;27;90109;-72
2022/04/09 20:48:15;;;;;;;5.50;4.88;;;22.70;68.20;;;;;;6255055;27;89037;-71
2022/04/09 20:51:18;;;;;;;5.28;4.78;;;22.70;68.20;;;;;;6252535;27;89220;-72
2022/04/09 20:54:21;;;;;;;6.07;5.47;;;22.70;68.20;;;;;;6256167;27;89453;-71
2022/04/09 20:57:25;;;;;;;5.82;5.22;;;22.70;68.30;;;;;;6254606;28;88902;-72
2022/04/09 21:00:27;;;;;;;6.22;5.50;;;22.70;68.20;;;;;;6256937;28;89173;-72
2022/04/09 21:03:29;;;;;;;6.20;5.60;;;22.70;68.30;;;;;;6256437;28;89080;-72
2022/04/09 21:06:31;;;;;;;6.15;5.40;;;22.70;68.30;;;;;;6255353;28;88463;-72
2022/04/09 21:09:33;;;;;;;6.18;5.57;;;22.70;68.30;;;;;;6257119;28;89353;-71
2022/04/09 21:12:36;;;;;;;6.28;5.63;;;22.60;68.10;;;;;;6255354;27;89057;-72
2022/04/09 21:15:39;;;;;;;5.45;4.95;;;22.70;68.20;;;;;;6254193;28;89996;-71
2022/04/09 21:18:41;;;;;;;5.95;5.30;;;22.60;67.90;;;;;;6255418;28;89266;-72
2022/04/09 21:21:43;;;;;;;6.68;5.97;;;22.60;68.10;;;;;;6243731;28;89028;-72
2022/04/09 21:24:45;;;;;;;9.05;5.85;;;22.60;68.00;;;;;;6258926;27;89108;-72
2022/04/09 21:27:48;;;;;;;5.97;5.38;;;22.60;67.90;;;;;;6260018;28;89155;-71
2022/04/09 21:30:50;;;;;;;6.82;6.13;;;22.60;67.90;;;;;;6257725;28;89615;-72
2022/04/09 21:33:52;;;;;;;6.63;5.60;;;22.60;67.70;;;;;;6256891;27;89406;-72
2022/04/09 21:36:55;;;;;;;6.80;6.10;;;22.60;67.90;;;;;;6259392;27;88657;-71
2022/04/09 21:39:57;;;;;;;6.53;5.43;;;22.50;67.80;;;;;;6258726;28;89333;-71
2022/04/09 21:43:00;;;;;;;6.30;5.70;;;22.50;67.70;;;;;;6258302;28;89136;-72
2022/04/09 21:46:02;;;;;;;6.88;5.75;;;22.50;67.90;;;;;;6257618;28;87865;-72
2022/04/09 21:49:04;;;;;;;6.25;5.65;;;22.50;68.00;;;;;;6255318;27;87956;-72
2022/04/09 21:52:07;;;;;;;6.93;5.72;;;22.50;68.20;;;;;;6247220;28;89620;-72
2022/04/09 21:55:09;;;;;;;6.35;5.75;;;22.50;68.20;;;;;;6256427;28;89186;-72
2022/04/09 21:58:14;;;;;;;6.15;5.55;;;22.50;68.30;;;;;;6258435;28;89078;-71
2022/04/09 22:01:16;;;;;;;6.28;5.38;;;22.50;68.20;;;;;;6247392;28;89095;-72
2022/04/09 22:04:18;;;;;;;6.10;5.50;;;22.50;68.30;;;;;;6250413;28;89077;-72
2022/04/09 22:07:19;;;;;;;6.28;5.68;;;22.50;68.30;;;;;;6257970;28;87244;-72
2022/04/09 22:10:21;;;;;;;6.07;5.47;;;22.50;68.30;;;;;;6255853;28;89334;-72
2022/04/09 22:13:25;;;;;;;6.13;5.53;;;22.40;68.30;;;;;;6258394;27;89034;-72
2022/04/09 22:16:27;;;;;;;6.35;5.70;;;22.40;68.30;;;;;;6256716;28;90239;-71
2022/04/09 22:19:29;;;;;;;6.10;5.50;;;22.30;68.30;;;;;;6257410;27;89175;-72
2022/04/09 22:22:50;;;;;;;6.15;5.55;;;22.40;68.40;;;;;;6256719;28;89053;-72
2022/04/09 22:25:52;;;;;;;5.78;5.18;;;22.40;68.50;;;;;;6257225;28;89113;-72
2022/04/09 22:28:56;;;;;;;6.65;5.90;;;22.40;68.50;;;;;;6257063;28;89111;-71
2022/04/09 22:31:59;;;;;;;6.30;5.70;;;22.40;68.50;;;;;;6256230;28;89055;-72
2022/04/09 22:35:01;;;;;;;6.10;5.50;;;22.30;68.50;;;;;;6256622;28;89116;-72
2022/04/09 22:38:03;;;;;;;6.47;5.80;;;22.40;68.60;;;;;;6257464;27;88334;-70
2022/04/09 22:41:06;;;;;;;5.95;5.35;;;22.30;68.50;;;;;;6255530;27;89068;-71
2022/04/09 22:44:10;;;;;;;5.55;5.05;;;22.40;68.40;;;;;;6256953;28;89120;-71
2022/04/09 22:47:14;;;;;;;5.85;5.25;;;22.30;68.40;;;;;;6254954;28;90117;-71
2022/04/09 22:50:34;;;;;;;6.28;5.68;;;22.30;68.40;;;;;;6256690;28;89076;-72
2022/04/09 22:53:36;;;;;;;6.20;5.60;;;22.30;68.40;;;;;;6232853;28;87888;-72
2022/04/09 22:56:38;;;;;;;6.00;5.40;;;22.30;68.40;;;;;;6235634;28;89117;-72
2022/04/09 22:59:42;;;;;;;5.70;5.10;;;22.20;68.40;;;;;;6231050;28;89063;-72
2022/04/09 23:02:43;;;;;;;5.97;5.38;;;22.30;68.40;;;;;;6256214;28;89493;-72
2022/04/09 23:05:46;;;;;;;5.93;5.32;;;22.20;68.40;;;;;;6249716;27;88807;-72
2022/04/09 23:08:47;;;;;;;6.00;5.47;;;22.20;68.50;;;;;;6253250;28;88636;-72
2022/04/09 23:11:49;;;;;;;5.35;4.85;;;22.20;68.40;;;;;;6257058;28;89402;-73
2022/04/09 23:14:53;;;;;;;6.20;5.57;;;22.20;68.40;;;;;;6255998;27;89040;-72